createdAt,value
2023-01-27T00:00:52.147Z,2.65
2023-01-27T00:03:20.455Z,4.50
2023-01-27T00:05:48.028Z,3.95
2023-01-27T00:08:15.692Z,2.92
2023-01-27T00:10:43.335Z,2.60
2023-01-27T00:13:32.190Z,4.38
2023-01-27T00:15:59.645Z,3.42
2023-01-27T00:18:26.979Z,3.75
2023-01-27T00:21:13.952Z,2.80
2023-01-27T00:24:00.934Z,3.17
2023-01-27T00:26:28.040Z,2.67
2023-01-27T00:28:55.104Z,4.20
2023-01-27T00:31:42.110Z,3.08
2023-01-27T00:34:09.605Z,3.20
2023-01-27T00:36:39.076Z,3.45
2023-01-27T00:39:07.902Z,4.30
2023-01-27T00:41:35.296Z,4.43
2023-01-27T00:44:02.798Z,3.03
2023-01-27T00:46:30.216Z,3.33
2023-01-27T00:48:57.288Z,4.47
2023-01-27T00:51:24.765Z,4.07
2023-01-27T00:53:51.890Z,3.28
2023-01-27T00:56:19.462Z,3.35
2023-01-27T00:58:46.826Z,2.92
2023-01-27T01:01:16.078Z,4.38
2023-01-27T01:03:44.092Z,3.25
2023-01-27T01:06:13.893Z,3.20
2023-01-27T01:08:41.323Z,3.90
2023-01-27T01:11:11.085Z,3.03
2023-01-27T01:13:38.179Z,3.17
2023-01-27T01:16:11.772Z,3.22
2023-01-27T01:18:39.326Z,4.43
2023-01-27T01:21:07.197Z,3.03
2023-01-27T01:23:35.311Z,3.22
2023-01-27T01:26:02.377Z,4.22
2023-01-27T01:28:29.530Z,3.03
2023-01-27T01:30:56.747Z,3.80
2023-01-27T01:33:23.896Z,4.35
2023-01-27T01:35:50.979Z,3.22
2023-01-27T01:38:18.107Z,4.50
2023-01-27T01:40:45.657Z,4.47
2023-01-27T01:43:16.996Z,4.38
2023-01-27T01:45:54.681Z,4.13
2023-01-27T01:48:36.550Z,4.05
2023-01-27T01:51:21.572Z,4.78
2023-01-27T01:53:57.735Z,3.20
2023-01-27T01:56:31.185Z,4.25
2023-01-27T01:59:04.138Z,3.40
2023-01-27T02:01:31.325Z,3.72
2023-01-27T02:04:04.196Z,4.07
2023-01-27T02:06:40.132Z,4.13
2023-01-27T02:09:07.898Z,3.80
2023-01-27T02:11:34.960Z,3.58
2023-01-27T02:14:03.235Z,3.67
2023-01-27T02:16:31.387Z,3.90
2023-01-27T02:18:58.569Z,3.47
2023-01-27T02:21:26.265Z,3.00
2023-01-27T02:24:11.015Z,5.38
2023-01-27T02:26:43.578Z,3.13
2023-01-27T02:29:13.580Z,3.60
2023-01-27T02:31:41.061Z,4.05
2023-01-27T02:34:18.372Z,3.72
2023-01-27T02:36:51.316Z,3.58
2023-01-27T02:39:22.337Z,4.32
2023-01-27T02:41:53.436Z,3.15
2023-01-27T02:44:20.566Z,5.20
2023-01-27T02:46:47.642Z,3.38
2023-01-27T02:49:15.369Z,3.25
2023-01-27T02:51:42.761Z,4.45
2023-01-27T02:54:09.878Z,4.47
2023-01-27T02:56:36.922Z,4.38
2023-01-27T02:59:04.017Z,3.22
2023-01-27T03:01:32.830Z,4.93
2023-01-27T03:04:00.265Z,4.88
2023-01-27T03:06:27.452Z,3.85
2023-01-27T03:08:54.635Z,4.38
2023-01-27T03:11:41.552Z,3.63
2023-01-27T03:14:09.271Z,3.35
2023-01-27T03:16:56.507Z,4.03
2023-01-27T03:19:23.623Z,3.35
2023-01-27T03:21:51.362Z,4.72
2023-01-27T03:24:18.814Z,3.72
2023-01-27T03:26:46.501Z,4.57
2023-01-27T03:29:33.466Z,3.50
2023-01-27T03:32:00.498Z,4.20
2023-01-27T03:34:27.581Z,3.85
2023-01-27T03:37:14.507Z,3.35
2023-01-27T03:40:01.577Z,3.35
2023-01-27T03:42:48.490Z,2.90
2023-01-27T03:45:35.514Z,4.60
2023-01-27T03:48:02.564Z,3.08
2023-01-27T03:50:38.055Z,3.35
2023-01-27T03:53:06.079Z,4.28
2023-01-27T03:55:34.853Z,3.40
2023-01-27T03:58:14.804Z,3.97
2023-01-27T04:00:41.954Z,4.10
2023-01-27T04:03:28.913Z,3.33
2023-01-27T04:06:16.023Z,3.30
2023-01-27T04:08:43.797Z,2.55
2023-01-27T04:11:31.917Z,3.95
2023-01-27T04:14:02.230Z,3.08
2023-01-27T04:16:30.393Z,3.55
2023-01-27T04:18:58.088Z,3.13
2023-01-27T04:21:25.931Z,2.75
2023-01-27T04:23:53.945Z,2.80
2023-01-27T04:26:21.583Z,3.40
2023-01-27T04:28:49.557Z,4.32
2023-01-27T04:31:17.734Z,3.33
2023-01-27T04:33:45.609Z,3.85
2023-01-27T04:36:13.159Z,3.30
2023-01-27T04:38:40.267Z,3.58
2023-01-27T04:41:07.444Z,2.75
2023-01-27T04:43:34.574Z,3.15
2023-01-27T04:46:01.842Z,2.70
2023-01-27T04:48:29.205Z,2.75
2023-01-27T04:50:56.286Z,2.45
2023-01-27T04:53:23.458Z,2.65
2023-01-27T04:55:50.752Z,3.35
2023-01-27T04:58:18.513Z,3.00
2023-01-27T05:00:45.956Z,2.58
2023-01-27T05:03:13.163Z,3.15
2023-01-27T05:05:40.377Z,4.75
2023-01-27T05:08:10.403Z,3.80
2023-01-27T05:10:37.935Z,2.97
2023-01-27T05:13:05.075Z,2.85
2023-01-27T05:15:32.243Z,3.40
2023-01-27T05:17:59.421Z,3.08
2023-01-27T05:20:26.546Z,3.15
2023-01-27T05:23:13.483Z,3.45
2023-01-27T05:25:45.213Z,2.90
2023-01-27T05:28:12.564Z,2.45
2023-01-27T05:30:39.816Z,2.63
2023-01-27T05:33:08.568Z,2.70
2023-01-27T05:35:35.696Z,3.03
2023-01-27T05:38:02.769Z,4.50
2023-01-27T05:40:30.003Z,4.32
2023-01-27T05:42:57.207Z,3.83
2023-01-27T05:45:24.283Z,4.25
2023-01-27T05:47:51.781Z,4.88
2023-01-27T05:50:19.096Z,5.82
2023-01-27T05:52:46.633Z,4.20
2023-01-27T05:55:14.054Z,3.90
2023-01-27T05:57:41.413Z,4.00
2023-01-27T06:00:09.205Z,4.28
2023-01-27T06:02:36.302Z,4.22
2023-01-27T06:05:03.387Z,4.15
2023-01-27T06:07:30.454Z,4.80
2023-01-27T06:09:57.730Z,4.60
2023-01-27T06:12:24.801Z,4.07
2023-01-27T06:14:51.932Z,4.10
2023-01-27T06:17:19.187Z,4.38
2023-01-27T06:19:46.257Z,4.63
2023-01-27T06:22:13.452Z,6.20
2023-01-27T06:24:40.548Z,4.03
2023-01-27T06:27:07.656Z,5.35
2023-01-27T06:29:34.836Z,4.75
2023-01-27T06:32:02.101Z,4.22
2023-01-27T06:34:30.300Z,5.20
2023-01-27T06:36:57.437Z,5.43
2023-01-27T06:39:24.507Z,5.95
2023-01-27T06:41:51.634Z,5.32
2023-01-27T06:44:18.744Z,5.07
2023-01-27T06:46:46.807Z,5.85
2023-01-27T06:49:15.459Z,6.30
2023-01-27T06:51:42.732Z,7.13
2023-01-27T06:54:11.169Z,6.50
2023-01-27T06:56:38.225Z,5.57
2023-01-27T06:59:06.230Z,9.88
2023-01-27T07:01:33.309Z,6.07
2023-01-27T07:04:00.570Z,6.65
2023-01-27T07:06:27.810Z,6.25
2023-01-27T07:08:55.652Z,7.68
2023-01-27T07:11:24.179Z,10.23
2023-01-27T07:13:51.524Z,6.32
2023-01-27T07:16:18.698Z,7.82
2023-01-27T07:18:45.765Z,7.05
2023-01-27T07:21:13.333Z,9.63
2023-01-27T07:23:40.945Z,8.73
2023-01-27T07:26:23.275Z,7.93
2023-01-27T07:28:52.112Z,7.47
2023-01-27T07:31:19.488Z,7.22
2023-01-27T07:33:46.732Z,6.85
2023-01-27T07:36:13.991Z,6.40
2023-01-27T07:38:41.211Z,8.70
2023-01-27T07:41:08.379Z,8.00
2023-01-27T07:43:36.099Z,6.38
2023-01-27T07:46:03.538Z,9.32
2023-01-27T07:48:30.582Z,9.13
2023-01-27T07:50:58.187Z,9.90
2023-01-27T07:53:25.839Z,6.88
2023-01-27T07:55:53.672Z,9.10
2023-01-27T07:58:20.812Z,8.25
2023-01-27T08:00:47.936Z,7.60
2023-01-27T08:03:23.710Z,9.10
2023-01-27T08:05:51.477Z,8.50
2023-01-27T08:08:19.327Z,8.40
2023-01-27T08:10:49.394Z,8.43
2023-01-27T08:13:16.641Z,10.50
2023-01-27T08:15:43.890Z,8.20
2023-01-27T08:18:12.046Z,8.63
2023-01-27T08:20:39.698Z,10.77
2023-01-27T08:23:06.807Z,12.80
2023-01-27T08:25:33.926Z,12.50
2023-01-27T08:28:01.241Z,11.80
2023-01-27T08:30:29.294Z,15.43
2023-01-27T08:32:56.421Z,11.40
2023-01-27T08:35:23.533Z,14.23
2023-01-27T08:37:51.702Z,19.23
2023-01-27T08:40:19.299Z,14.90
2023-01-27T08:42:46.873Z,17.55
2023-01-27T08:45:14.193Z,10.10
2023-01-27T08:47:41.418Z,24.35
2023-01-27T08:50:09.867Z,12.73
2023-01-27T08:52:37.008Z,12.10
2023-01-27T08:55:04.481Z,15.07
2023-01-27T08:57:32.745Z,17.48
2023-01-27T09:00:00.362Z,16.77
2023-01-27T09:02:27.472Z,11.80
2023-01-27T09:04:54.575Z,9.65
2023-01-27T09:07:22.479Z,10.18
2023-01-27T09:09:51.349Z,16.35
2023-01-27T09:12:23.093Z,9.32
2023-01-27T09:14:50.253Z,11.02
2023-01-27T09:17:19.784Z,12.73
2023-01-27T09:19:47.572Z,11.07
2023-01-27T09:22:14.688Z,10.68
2023-01-27T09:24:41.758Z,12.13
2023-01-27T09:27:08.833Z,11.82
2023-01-27T09:29:36.875Z,11.57
2023-01-27T09:32:04.490Z,10.40
2023-01-27T09:34:31.635Z,10.70
2023-01-27T09:37:06.981Z,12.07
2023-01-27T09:39:41.610Z,9.70
2023-01-27T09:42:45.749Z,12.60
2023-01-27T09:45:31.820Z,11.18
2023-01-27T09:48:33.709Z,8.68
2023-01-27T09:51:26.407Z,13.30
2023-01-27T09:54:15.503Z,9.40
2023-01-27T09:57:12.851Z,12.45
2023-01-27T10:00:03.879Z,14.30
2023-01-27T10:03:03.923Z,10.00
2023-01-27T10:05:58.354Z,11.88
2023-01-27T10:08:58.490Z,11.05
2023-01-27T10:11:54.829Z,11.00
2023-01-27T10:14:59.156Z,9.70
2023-01-27T10:17:39.980Z,10.75
2023-01-27T10:20:39.607Z,10.18
2023-01-27T10:23:37.840Z,10.43
2023-01-27T10:26:32.012Z,13.07
2023-01-27T10:29:09.416Z,17.15
2023-01-27T10:32:01.834Z,9.48
2023-01-27T10:34:35.401Z,10.82
2023-01-27T10:37:37.291Z,11.95
2023-01-27T10:40:44.081Z,10.75
2023-01-27T10:43:39.892Z,13.75
2023-01-27T10:46:24.511Z,24.25
2023-01-27T10:49:07.833Z,18.05
2023-01-27T10:51:50.300Z,18.73
2023-01-27T10:54:34.533Z,17.33
2023-01-27T10:57:12.200Z,14.73
2023-01-27T11:00:21.941Z,16.13
2023-01-27T11:03:13.754Z,20.42
2023-01-27T11:05:47.431Z,19.02
2023-01-27T11:08:22.425Z,15.93
2023-01-27T11:11:14.143Z,16.55
2023-01-27T11:13:41.952Z,15.15
2023-01-27T11:16:19.811Z,18.48
2023-01-27T11:18:55.320Z,15.05
2023-01-27T11:21:28.279Z,12.80
2023-01-27T11:23:57.270Z,17.17
2023-01-27T11:26:48.791Z,20.98
2023-01-27T11:29:41.088Z,17.63
2023-01-27T11:32:19.034Z,18.17
2023-01-27T11:35:09.831Z,13.48
2023-01-27T11:37:49.547Z,17.73
2023-01-27T11:40:21.913Z,16.33
2023-01-27T11:42:51.635Z,16.63
2023-01-27T11:45:21.517Z,16.08
2023-01-27T11:47:55.160Z,18.58
2023-01-27T11:50:24.949Z,16.90
2023-01-27T11:53:03.680Z,18.27
2023-01-27T11:55:41.664Z,17.73
2023-01-27T11:58:26.018Z,13.60
2023-01-27T12:01:15.863Z,19.02
2023-01-27T12:04:19.580Z,20.75
2023-01-27T12:06:54.142Z,25.73
2023-01-27T12:09:36.657Z,19.67
2023-01-27T12:12:25.187Z,21.63
2023-01-27T12:14:58.181Z,35.20
2023-01-27T12:17:34.093Z,23.15
2023-01-27T12:20:26.919Z,25.05
2023-01-27T12:22:56.946Z,27.25
2023-01-27T12:25:28.360Z,26.08
2023-01-27T12:28:01.893Z,20.98
2023-01-27T12:30:39.248Z,23.60
2023-01-27T12:33:19.905Z,26.77
2023-01-27T12:35:49.738Z,35.35
2023-01-27T12:38:24.413Z,26.45
2023-01-27T12:41:00.162Z,25.02
2023-01-27T12:43:27.830Z,22.10
2023-01-27T12:46:20.231Z,24.98
2023-01-27T12:48:50.627Z,23.20
2023-01-27T12:51:23.671Z,28.27
2023-01-27T12:54:11.494Z,26.67
2023-01-27T12:56:39.644Z,31.23
2023-01-27T12:59:15.680Z,26.65
2023-01-27T13:01:45.183Z,26.55
2023-01-27T13:04:19.366Z,29.95
2023-01-27T13:06:54.491Z,29.70
2023-01-27T13:09:39.632Z,29.20
2023-01-27T13:12:30.845Z,37.75
2023-01-27T13:15:06.254Z,50.65
2023-01-27T13:17:50.536Z,42.05
2023-01-27T13:20:43.110Z,41.75
2023-01-27T13:23:22.213Z,40.90
2023-01-27T13:26:14.548Z,39.33
2023-01-27T13:29:16.224Z,33.88
2023-01-27T13:32:03.637Z,36.55
2023-01-27T13:34:45.951Z,37.47
2023-01-27T13:37:23.838Z,36.58
2023-01-27T13:40:17.273Z,33.83
2023-01-27T13:43:10.002Z,33.60
2023-01-27T13:46:07.024Z,34.72
2023-01-27T13:48:48.851Z,28.77
2023-01-27T13:51:22.261Z,29.70
2023-01-27T13:53:57.312Z,30.27
2023-01-27T13:56:50.273Z,28.23
2023-01-27T13:59:43.151Z,25.30
2023-01-27T14:02:39.206Z,24.85
2023-01-27T14:05:28.729Z,23.35
2023-01-27T14:08:21.880Z,29.63
2023-01-27T14:11:29.456Z,25.60
2023-01-27T14:14:17.903Z,29.17
2023-01-27T14:17:26.710Z,26.80
2023-01-27T14:20:18.684Z,22.17
2023-01-27T14:23:11.652Z,29.85
2023-01-27T14:26:07.936Z,26.88
2023-01-27T14:29:14.456Z,22.75
2023-01-27T14:31:58.296Z,19.67
2023-01-27T14:34:52.947Z,23.90
2023-01-27T14:37:35.779Z,21.42
2023-01-27T14:40:21.835Z,21.77
2023-01-27T14:43:28.584Z,20.10
2023-01-27T14:46:31.187Z,18.10
2023-01-27T14:49:24.168Z,17.90
2023-01-27T14:52:14.326Z,19.30
2023-01-27T14:55:21.110Z,22.60
2023-01-27T14:58:22.165Z,17.65
2023-01-27T15:01:26.672Z,15.77
2023-01-27T15:04:23.663Z,20.73
2023-01-27T15:07:15.102Z,19.58
2023-01-27T15:09:58.000Z,15.13
2023-01-27T15:13:03.315Z,16.00
2023-01-27T15:15:55.168Z,16.10
2023-01-27T15:18:51.493Z,18.48
2023-01-27T15:21:50.038Z,17.25
2023-01-27T15:24:33.818Z,15.93
2023-01-27T15:27:01.714Z,11.20
2023-01-27T15:29:31.411Z,12.60
2023-01-27T15:32:28.259Z,21.85
2023-01-27T15:35:36.251Z,14.32
2023-01-27T15:38:32.814Z,15.32
2023-01-27T15:41:04.962Z,11.07
2023-01-27T15:43:38.074Z,12.52
2023-01-27T15:46:30.348Z,12.60
2023-01-27T15:49:00.842Z,12.88
2023-01-27T15:51:31.856Z,11.32
2023-01-27T15:54:00.186Z,10.82
2023-01-27T15:56:53.223Z,9.95
2023-01-27T15:59:30.562Z,14.45
2023-01-27T16:02:19.063Z,10.00
2023-01-27T16:04:54.812Z,11.30
2023-01-27T16:07:30.480Z,11.05
2023-01-27T16:09:59.912Z,10.20
2023-01-27T16:12:40.842Z,10.68
2023-01-27T16:15:32.666Z,9.90
2023-01-27T16:18:22.091Z,10.77
2023-01-27T16:21:07.063Z,10.00
2023-01-27T16:23:55.323Z,9.30
2023-01-27T16:26:34.732Z,10.38
2023-01-27T16:29:28.780Z,8.77
2023-01-27T16:32:01.473Z,9.93
2023-01-27T16:34:46.922Z,9.43
2023-01-27T16:37:27.181Z,10.57
2023-01-27T16:40:16.125Z,8.23
2023-01-27T16:42:57.714Z,9.63
2023-01-27T16:45:28.590Z,8.82
2023-01-27T16:48:15.593Z,5.63
2023-01-27T16:50:43.934Z,8.65
2023-01-27T16:57:03.696Z,6.57
2023-01-27T16:59:34.250Z,8.20
2023-01-27T17:02:05.672Z,7.40
2023-01-27T17:04:33.086Z,7.30
2023-01-27T17:07:07.027Z,8.52
2023-01-27T17:09:41.183Z,7.43
2023-01-27T17:12:31.940Z,8.75
2023-01-27T17:14:59.963Z,6.50
2023-01-27T17:17:29.633Z,9.70
2023-01-27T17:20:02.716Z,7.00
2023-01-27T17:22:41.072Z,8.70
2023-01-27T17:25:30.172Z,6.25
2023-01-27T17:28:04.114Z,5.97
2023-01-27T17:30:39.581Z,8.68
2023-01-27T17:33:08.604Z,7.78
2023-01-27T17:35:41.052Z,9.27
2023-01-27T17:38:15.428Z,7.20
2023-01-27T17:40:44.965Z,8.18
2023-01-27T17:43:33.888Z,7.97
2023-01-27T17:46:14.730Z,9.30
2023-01-27T17:48:50.096Z,7.65
2023-01-27T17:51:24.633Z,6.80
2023-01-27T17:53:53.086Z,5.57
2023-01-27T17:56:24.589Z,8.50
2023-01-27T17:58:59.286Z,7.60
2023-01-27T18:01:26.764Z,9.48
2023-01-27T18:03:56.489Z,6.57
2023-01-27T18:06:26.582Z,7.60
2023-01-27T18:08:57.189Z,6.75
2023-01-27T18:11:31.381Z,7.50
2023-01-27T18:14:06.455Z,7.13
2023-01-27T18:16:33.698Z,9.40
2023-01-27T18:19:20.719Z,7.82
2023-01-27T18:21:48.355Z,6.55
2023-01-27T18:24:23.818Z,8.75
2023-01-27T18:26:51.100Z,5.68
2023-01-27T18:29:28.067Z,6.93
2023-01-27T18:32:17.246Z,6.15
2023-01-27T18:34:49.943Z,8.10
2023-01-27T18:37:26.590Z,7.40
2023-01-27T18:39:55.184Z,7.90
2023-01-27T18:42:27.713Z,8.38
2023-01-27T18:44:55.835Z,8.15
2023-01-27T18:47:35.947Z,6.97
2023-01-27T18:50:19.522Z,7.88
2023-01-27T18:52:47.373Z,9.07
2023-01-27T18:55:22.472Z,7.50
2023-01-27T18:57:52.301Z,7.88
2023-01-27T19:00:25.880Z,5.50
2023-01-27T19:02:57.247Z,7.40
2023-01-27T19:05:28.270Z,6.90
2023-01-27T19:07:55.360Z,7.75
2023-01-27T19:10:25.639Z,6.53
2023-01-27T19:12:53.563Z,6.78
2023-01-27T19:15:24.067Z,7.35
2023-01-27T19:17:53.772Z,7.53
2023-01-27T19:20:23.409Z,7.18
2023-01-27T19:22:52.106Z,7.65
2023-01-27T19:25:19.451Z,7.22
2023-01-27T19:27:50.049Z,7.00
2023-01-27T19:30:26.153Z,9.05
2023-01-27T19:32:55.278Z,8.00
2023-01-27T19:35:24.199Z,6.47
2023-01-27T19:37:54.167Z,7.22
2023-01-27T19:40:28.584Z,8.90
2023-01-27T19:42:56.342Z,6.50
2023-01-27T19:45:26.154Z,8.68
2023-01-27T19:47:53.191Z,7.68
2023-01-27T19:50:28.067Z,6.65
2023-01-27T19:52:55.336Z,6.22
2023-01-27T19:55:23.027Z,5.97
2023-01-27T19:57:51.647Z,7.45
2023-01-27T20:00:29.389Z,7.57
2023-01-27T20:02:57.273Z,8.90
2023-01-27T20:05:26.354Z,6.47
2023-01-27T20:07:55.473Z,7.93
2023-01-27T20:10:26.716Z,6.88
2023-01-27T20:12:56.714Z,5.88
2023-01-27T20:15:25.718Z,7.22
2023-01-27T20:17:53.476Z,7.72
2023-01-27T20:20:21.801Z,7.80
2023-01-27T20:22:49.200Z,7.82
2023-01-27T20:25:19.015Z,7.35
2023-01-27T20:27:48.986Z,5.57
2023-01-27T20:30:22.022Z,7.93
2023-01-27T20:32:49.139Z,5.25
2023-01-27T20:35:18.403Z,6.55
2023-01-27T20:37:47.688Z,6.65
2023-01-27T20:40:20.831Z,6.10
2023-01-27T20:42:48.663Z,7.38
2023-01-27T20:45:16.669Z,8.77
2023-01-27T20:47:47.881Z,6.28
2023-01-27T20:50:14.909Z,7.32
2023-01-27T20:52:41.937Z,6.97
2023-01-27T20:55:09.758Z,7.63
2023-01-27T20:57:37.004Z,8.18
2023-01-27T21:00:04.680Z,7.60
2023-01-27T21:02:31.828Z,9.43
2023-01-27T21:04:58.903Z,9.23
2023-01-27T21:07:26.464Z,6.28
2023-01-27T21:09:53.678Z,6.90
2023-01-27T21:12:21.866Z,6.55
2023-01-27T21:14:48.923Z,7.50
2023-01-27T21:17:16.519Z,8.93
2023-01-27T21:19:43.628Z,10.10
2023-01-27T21:22:10.718Z,7.82
2023-01-27T21:24:37.772Z,8.50
2023-01-27T21:27:05.052Z,7.85
2023-01-27T21:29:32.303Z,8.15
2023-01-27T21:31:59.608Z,6.82
2023-01-27T21:34:26.784Z,7.65
2023-01-27T21:36:55.987Z,6.32
2023-01-27T21:39:23.995Z,8.32
2023-01-27T21:42:10.900Z,8.30
2023-01-27T21:44:58.285Z,8.02
2023-01-27T21:47:25.389Z,7.63
2023-01-27T21:50:02.001Z,6.75
2023-01-27T21:52:35.396Z,7.25
2023-01-27T21:55:04.498Z,8.38
2023-01-27T21:57:32.271Z,7.07
2023-01-27T21:59:59.318Z,8.10
2023-01-27T22:02:26.460Z,7.60
2023-01-27T22:04:53.651Z,8.25
2023-01-27T22:07:21.003Z,8.20
2023-01-27T22:09:48.121Z,6.82
2023-01-27T22:12:16.520Z,7.93
2023-01-27T22:14:43.975Z,7.80
2023-01-27T22:17:11.214Z,7.82
2023-01-27T22:19:39.321Z,7.72
2023-01-27T22:22:09.804Z,6.82
2023-01-27T22:27:03.974Z,8.38
2023-01-27T22:29:30.984Z,7.93
2023-01-27T22:31:58.056Z,6.35
2023-01-27T22:34:25.158Z,7.72
2023-01-27T22:36:52.352Z,10.30
2023-01-27T22:39:19.757Z,8.35
2023-01-27T22:41:47.827Z,7.93
2023-01-27T22:44:15.344Z,7.13
2023-01-27T22:46:43.083Z,7.57
2023-01-27T22:49:11.188Z,8.80
2023-01-27T22:51:38.803Z,8.20
2023-01-27T22:54:06.073Z,8.95
2023-01-27T22:56:33.471Z,8.05
2023-01-27T22:59:01.388Z,7.43
2023-01-27T23:01:29.036Z,8.35
2023-01-27T23:03:56.056Z,8.63
2023-01-27T23:06:23.115Z,7.80
2023-01-27T23:08:50.153Z,8.35
2023-01-27T23:11:17.187Z,8.35
2023-01-27T23:13:44.261Z,7.88
2023-01-27T23:16:11.290Z,10.57
2023-01-27T23:18:38.337Z,7.70
2023-01-27T23:21:08.336Z,9.50
2023-01-27T23:23:36.267Z,8.52
2023-01-27T23:26:07.385Z,8.98
2023-01-27T23:28:35.094Z,9.65
2023-01-27T23:31:02.332Z,9.23
2023-01-27T23:33:35.249Z,10.05
2023-01-27T23:36:02.340Z,9.40
2023-01-27T23:38:33.053Z,8.13
2023-01-27T23:41:02.528Z,10.68
2023-01-27T23:43:31.167Z,8.82
2023-01-27T23:45:58.607Z,8.88
2023-01-27T23:48:26.254Z,8.88
2023-01-27T23:50:53.282Z,8.23
2023-01-27T23:53:20.671Z,9.23
2023-01-27T23:55:58.530Z,7.95
2023-01-27T23:58:26.724Z,9.70
